sensor_id;sensor_type;location;lat;lon;timestamp;P1;durP1;ratioP1;P2;durP2;ratioP2
32321;SDS011;61553;48.994;8.940;2024-03-08T00:00:13;27.50;;;13.80;;
32321;SDS011;61553;48.994;8.940;2024-03-08T00:02:40;33.28;;;14.73;;
32321;SDS011;61553;48.994;8.940;2024-03-08T00:05:07;30.50;;;14.50;;
32321;SDS011;61553;48.994;8.940;2024-03-08T00:07:36;32.80;;;14.80;;
32321;SDS011;61553;48.994;8.940;2024-03-08T00:10:03;31.50;;;15.15;;
32321;SDS011;61553;48.994;8.940;2024-03-08T00:12:29;30.23;;;13.68;;
32321;SDS011;61553;48.994;8.940;2024-03-08T00:14:55;30.83;;;15.77;;
32321;SDS011;61553;48.994;8.940;2024-03-08T00:17:21;32.58;;;14.98;;
32321;SDS011;61553;48.994;8.940;2024-03-08T00:19:53;25.90;;;12.82;;
32321;SDS011;61553;48.994;8.940;2024-03-08T00:22:19;36.15;;;15.93;;
32321;SDS011;61553;48.994;8.940;2024-03-08T00:24:47;29.48;;;14.25;;
32321;SDS011;61553;48.994;8.940;2024-03-08T00:27:15;29.90;;;14.25;;
32321;SDS011;61553;48.994;8.940;2024-03-08T00:29:41;29.33;;;13.77;;
32321;SDS011;61553;48.994;8.940;2024-03-08T00:32:06;29.70;;;16.13;;
32321;SDS011;61553;48.994;8.940;2024-03-08T00:34:34;33.35;;;14.88;;
32321;SDS011;61553;48.994;8.940;2024-03-08T00:37:01;29.70;;;15.18;;
32321;SDS011;61553;48.994;8.940;2024-03-08T00:39:28;32.15;;;14.80;;
32321;SDS011;61553;48.994;8.940;2024-03-08T00:41:53;35.00;;;14.13;;
32321;SDS011;61553;48.994;8.940;2024-03-08T00:44:19;32.88;;;14.95;;
32321;SDS011;61553;48.994;8.940;2024-03-08T00:46:45;29.45;;;13.68;;
32321;SDS011;61553;48.994;8.940;2024-03-08T00:49:10;30.13;;;14.98;;
32321;SDS011;61553;48.994;8.940;2024-03-08T00:51:37;27.75;;;13.90;;
32321;SDS011;61553;48.994;8.940;2024-03-08T00:54:03;28.50;;;14.20;;
32321;SDS011;61553;48.994;8.940;2024-03-08T00:56:29;32.90;;;15.13;;
32321;SDS011;61553;48.994;8.940;2024-03-08T00:58:54;33.83;;;15.07;;
32321;SDS011;61553;48.994;8.940;2024-03-08T01:01:20;32.70;;;16.17;;
32321;SDS011;61553;48.994;8.940;2024-03-08T01:03:46;32.55;;;15.32;;
32321;SDS011;61553;48.994;8.940;2024-03-08T01:06:11;32.63;;;15.15;;
32321;SDS011;61553;48.994;8.940;2024-03-08T01:08:37;32.28;;;14.68;;
32321;SDS011;61553;48.994;8.940;2024-03-08T01:11:03;32.10;;;14.27;;
32321;SDS011;61553;48.994;8.940;2024-03-08T01:13:30;31.70;;;14.10;;
32321;SDS011;61553;48.994;8.940;2024-03-08T01:15:56;28.58;;;14.25;;
32321;SDS011;61553;48.994;8.940;2024-03-08T01:18:21;37.70;;;14.10;;
32321;SDS011;61553;48.994;8.940;2024-03-08T01:20:47;28.15;;;14.40;;
32321;SDS011;61553;48.994;8.940;2024-03-08T01:23:13;33.38;;;16.02;;
32321;SDS011;61553;48.994;8.940;2024-03-08T01:25:39;32.15;;;14.43;;
32321;SDS011;61553;48.994;8.940;2024-03-08T01:28:04;34.10;;;15.02;;
32321;SDS011;61553;48.994;8.940;2024-03-08T01:30:30;38.20;;;14.90;;
32321;SDS011;61553;48.994;8.940;2024-03-08T01:32:57;30.08;;;14.27;;
32321;SDS011;61553;48.994;8.940;2024-03-08T01:35:23;28.48;;;13.73;;
32321;SDS011;61553;48.994;8.940;2024-03-08T01:37:49;35.03;;;14.95;;
32321;SDS011;61553;48.994;8.940;2024-03-08T01:40:15;27.98;;;13.13;;
32321;SDS011;61553;48.994;8.940;2024-03-08T01:42:41;32.13;;;14.98;;
32321;SDS011;61553;48.994;8.940;2024-03-08T01:45:07;31.75;;;15.15;;
32321;SDS011;61553;48.994;8.940;2024-03-08T01:47:34;36.70;;;15.52;;
32321;SDS011;61553;48.994;8.940;2024-03-08T01:50:00;33.65;;;14.57;;
32321;SDS011;61553;48.994;8.940;2024-03-08T01:52:28;34.70;;;14.63;;
32321;SDS011;61553;48.994;8.940;2024-03-08T01:54:56;33.28;;;15.20;;
32321;SDS011;61553;48.994;8.940;2024-03-08T01:57:25;32.75;;;14.45;;
32321;SDS011;61553;48.994;8.940;2024-03-08T01:59:52;28.50;;;12.82;;
32321;SDS011;61553;48.994;8.940;2024-03-08T02:02:20;27.88;;;13.88;;
32321;SDS011;61553;48.994;8.940;2024-03-08T02:04:48;28.30;;;13.88;;
32321;SDS011;61553;48.994;8.940;2024-03-08T02:07:13;33.67;;;14.93;;
32321;SDS011;61553;48.994;8.940;2024-03-08T02:09:39;29.48;;;14.27;;
32321;SDS011;61553;48.994;8.940;2024-03-08T02:12:05;32.83;;;14.45;;
32321;SDS011;61553;48.994;8.940;2024-03-08T02:14:32;28.98;;;13.95;;
32321;SDS011;61553;48.994;8.940;2024-03-08T02:17:01;31.25;;;14.73;;
32321;SDS011;61553;48.994;8.940;2024-03-08T02:19:27;31.15;;;14.77;;
32321;SDS011;61553;48.994;8.940;2024-03-08T02:21:53;33.00;;;14.70;;
32321;SDS011;61553;48.994;8.940;2024-03-08T02:24:19;33.30;;;14.95;;
32321;SDS011;61553;48.994;8.940;2024-03-08T02:26:44;32.45;;;14.68;;
32321;SDS011;61553;48.994;8.940;2024-03-08T02:29:11;33.67;;;13.93;;
32321;SDS011;61553;48.994;8.940;2024-03-08T02:31:43;38.25;;;15.07;;
32321;SDS011;61553;48.994;8.940;2024-03-08T02:34:09;29.90;;;14.18;;
32321;SDS011;61553;48.994;8.940;2024-03-08T02:36:34;34.20;;;16.38;;
32321;SDS011;61553;48.994;8.940;2024-03-08T02:48:20;31.25;;;13.60;;
32321;SDS011;61553;48.994;8.940;2024-03-08T02:50:46;34.38;;;13.82;;
32321;SDS011;61553;48.994;8.940;2024-03-08T02:53:13;32.83;;;15.25;;
32321;SDS011;61553;48.994;8.940;2024-03-08T02:55:39;33.28;;;14.95;;
32321;SDS011;61553;48.994;8.940;2024-03-08T02:58:06;33.28;;;13.90;;
32321;SDS011;61553;48.994;8.940;2024-03-08T03:00:35;33.47;;;14.40;;
32321;SDS011;61553;48.994;8.940;2024-03-08T03:03:01;32.42;;;14.82;;
32321;SDS011;61553;48.994;8.940;2024-03-08T03:05:28;33.05;;;14.45;;
32321;SDS011;61553;48.994;8.940;2024-03-08T03:07:54;28.02;;;13.88;;
32321;SDS011;61553;48.994;8.940;2024-03-08T03:10:20;33.85;;;14.90;;
32321;SDS011;61553;48.994;8.940;2024-03-08T03:12:47;31.77;;;14.60;;
32321;SDS011;61553;48.994;8.940;2024-03-08T03:15:16;36.35;;;15.23;;
32321;SDS011;61553;48.994;8.940;2024-03-08T03:17:49;32.97;;;14.35;;
32321;SDS011;61553;48.994;8.940;2024-03-08T03:20:18;28.25;;;12.50;;
32321;SDS011;61553;48.994;8.940;2024-03-08T03:23:05;35.45;;;15.55;;
32321;SDS011;61553;48.994;8.940;2024-03-08T03:25:33;37.90;;;15.60;;
32321;SDS011;61553;48.994;8.940;2024-03-08T03:28:00;28.30;;;13.60;;
32321;SDS011;61553;48.994;8.940;2024-03-08T03:30:26;33.03;;;13.60;;
32321;SDS011;61553;48.994;8.940;2024-03-08T03:32:55;31.90;;;14.65;;
32321;SDS011;61553;48.994;8.940;2024-03-08T03:35:25;33.95;;;15.13;;
32321;SDS011;61553;48.994;8.940;2024-03-08T03:37:51;38.03;;;15.13;;
32321;SDS011;61553;48.994;8.940;2024-03-08T03:40:30;32.40;;;14.55;;
32321;SDS011;61553;48.994;8.940;2024-03-08T03:42:56;35.20;;;14.95;;
32321;SDS011;61553;48.994;8.940;2024-03-08T03:45:22;33.53;;;15.20;;
32321;SDS011;61553;48.994;8.940;2024-03-08T03:47:48;34.42;;;15.60;;
32321;SDS011;61553;48.994;8.940;2024-03-08T03:50:14;45.75;;;18.83;;
32321;SDS011;61553;48.994;8.940;2024-03-08T03:52:39;33.55;;;14.80;;
32321;SDS011;61553;48.994;8.940;2024-03-08T03:55:07;34.63;;;14.68;;
32321;SDS011;61553;48.994;8.940;2024-03-08T03:57:33;36.28;;;15.05;;
32321;SDS011;61553;48.994;8.940;2024-03-08T03:59:58;35.40;;;14.45;;
32321;SDS011;61553;48.994;8.940;2024-03-08T04:02:24;31.08;;;13.40;;
32321;SDS011;61553;48.994;8.940;2024-03-08T04:04:51;28.48;;;13.30;;
32321;SDS011;61553;48.994;8.940;2024-03-08T04:07:17;31.92;;;13.63;;
32321;SDS011;61553;48.994;8.940;2024-03-08T04:09:43;32.03;;;14.63;;
32321;SDS011;61553;48.994;8.940;2024-03-08T04:12:09;31.50;;;13.68;;
32321;SDS011;61553;48.994;8.940;2024-03-08T04:14:35;31.35;;;14.15;;
32321;SDS011;61553;48.994;8.940;2024-03-08T04:17:01;30.30;;;14.32;;
32321;SDS011;61553;48.994;8.940;2024-03-08T04:19:27;31.17;;;14.13;;
32321;SDS011;61553;48.994;8.940;2024-03-08T04:21:53;28.73;;;13.50;;
32321;SDS011;61553;48.994;8.940;2024-03-08T04:24:19;30.50;;;15.68;;
32321;SDS011;61553;48.994;8.940;2024-03-08T04:26:45;29.75;;;14.20;;
32321;SDS011;61553;48.994;8.940;2024-03-08T04:29:11;28.48;;;13.25;;
32321;SDS011;61553;48.994;8.940;2024-03-08T04:31:39;35.63;;;15.27;;
32321;SDS011;61553;48.994;8.940;2024-03-08T04:34:05;31.15;;;14.38;;
32321;SDS011;61553;48.994;8.940;2024-03-08T04:36:31;35.03;;;15.75;;
32321;SDS011;61553;48.994;8.940;2024-03-08T04:38:56;33.22;;;15.80;;
32321;SDS011;61553;48.994;8.940;2024-03-08T04:41:22;33.47;;;14.13;;
32321;SDS011;61553;48.994;8.940;2024-03-08T04:43:48;34.17;;;16.67;;
32321;SDS011;61553;48.994;8.940;2024-03-08T04:46:14;33.35;;;15.32;;
32321;SDS011;61553;48.994;8.940;2024-03-08T04:48:41;33.60;;;15.15;;
32321;SDS011;61553;48.994;8.940;2024-03-08T04:51:08;31.08;;;13.48;;
32321;SDS011;61553;48.994;8.940;2024-03-08T04:53:34;29.10;;;14.65;;
32321;SDS011;61553;48.994;8.940;2024-03-08T04:56:00;36.58;;;16.15;;
32321;SDS011;61553;48.994;8.940;2024-03-08T04:58:31;35.42;;;15.70;;
32321;SDS011;61553;48.994;8.940;2024-03-08T05:00:59;30.40;;;15.05;;
32321;SDS011;61553;48.994;8.940;2024-03-08T05:03:25;30.80;;;13.88;;
32321;SDS011;61553;48.994;8.940;2024-03-08T05:05:51;30.83;;;14.10;;
32321;SDS011;61553;48.994;8.940;2024-03-08T05:08:17;36.22;;;14.40;;
32321;SDS011;61553;48.994;8.940;2024-03-08T05:10:43;29.88;;;13.32;;
32321;SDS011;61553;48.994;8.940;2024-03-08T05:13:09;35.05;;;14.63;;
32321;SDS011;61553;48.994;8.940;2024-03-08T05:15:35;30.50;;;14.55;;
32321;SDS011;61553;48.994;8.940;2024-03-08T05:18:01;31.80;;;14.15;;
32321;SDS011;61553;48.994;8.940;2024-03-08T05:20:27;29.77;;;13.98;;
32321;SDS011;61553;48.994;8.940;2024-03-08T05:22:53;32.50;;;14.25;;
32321;SDS011;61553;48.994;8.940;2024-03-08T05:25:18;40.58;;;15.48;;
32321;SDS011;61553;48.994;8.940;2024-03-08T05:27:44;37.20;;;14.82;;
32321;SDS011;61553;48.994;8.940;2024-03-08T05:30:10;36.60;;;15.30;;
32321;SDS011;61553;48.994;8.940;2024-03-08T05:32:40;38.83;;;16.77;;
32321;SDS011;61553;48.994;8.940;2024-03-08T05:35:10;32.67;;;13.88;;
32321;SDS011;61553;48.994;8.940;2024-03-08T05:37:37;32.47;;;14.60;;
32321;SDS011;61553;48.994;8.940;2024-03-08T05:40:05;58.58;;;21.90;;
32321;SDS011;61553;48.994;8.940;2024-03-08T05:42:37;31.20;;;14.10;;
32321;SDS011;61553;48.994;8.940;2024-03-08T05:45:03;33.88;;;14.43;;
32321;SDS011;61553;48.994;8.940;2024-03-08T05:47:31;32.47;;;14.32;;
32321;SDS011;61553;48.994;8.940;2024-03-08T05:49:58;26.77;;;14.13;;
32321;SDS011;61553;48.994;8.940;2024-03-08T05:52:24;30.50;;;13.32;;
32321;SDS011;61553;48.994;8.940;2024-03-08T05:54:51;34.55;;;14.63;;
32321;SDS011;61553;48.994;8.940;2024-03-08T05:57:17;40.67;;;14.52;;
32321;SDS011;61553;48.994;8.940;2024-03-08T05:59:42;34.03;;;14.48;;
32321;SDS011;61553;48.994;8.940;2024-03-08T06:02:08;30.60;;;14.05;;
32321;SDS011;61553;48.994;8.940;2024-03-08T06:04:34;35.33;;;15.68;;
32321;SDS011;61553;48.994;8.940;2024-03-08T06:06:59;36.40;;;15.00;;
32321;SDS011;61553;48.994;8.940;2024-03-08T06:09:25;36.03;;;16.40;;
32321;SDS011;61553;48.994;8.940;2024-03-08T06:11:51;40.42;;;17.85;;
32321;SDS011;61553;48.994;8.940;2024-03-08T06:14:18;39.92;;;16.92;;
32321;SDS011;61553;48.994;8.940;2024-03-08T06:16:45;36.38;;;17.05;;
32321;SDS011;61553;48.994;8.940;2024-03-08T06:19:11;37.65;;;15.77;;
32321;SDS011;61553;48.994;8.940;2024-03-08T06:21:37;38.85;;;16.98;;
32321;SDS011;61553;48.994;8.940;2024-03-08T06:24:03;37.80;;;17.08;;
32321;SDS011;61553;48.994;8.940;2024-03-08T06:26:29;35.33;;;18.05;;
32321;SDS011;61553;48.994;8.940;2024-03-08T06:28:55;40.42;;;20.17;;
32321;SDS011;61553;48.994;8.940;2024-03-08T06:31:21;37.85;;;18.40;;
32321;SDS011;61553;48.994;8.940;2024-03-08T06:33:47;35.17;;;17.80;;
32321;SDS011;61553;48.994;8.940;2024-03-08T06:36:17;43.67;;;20.70;;
32321;SDS011;61553;48.994;8.940;2024-03-08T06:38:49;40.70;;;19.23;;
32321;SDS011;61553;48.994;8.940;2024-03-08T06:41:15;40.38;;;19.17;;
32321;SDS011;61553;48.994;8.940;2024-03-08T06:43:44;32.90;;;16.27;;
32321;SDS011;61553;48.994;8.940;2024-03-08T06:46:10;36.60;;;17.05;;
32321;SDS011;61553;48.994;8.940;2024-03-08T06:48:39;39.55;;;18.92;;
32321;SDS011;61553;48.994;8.940;2024-03-08T06:51:05;35.88;;;16.70;;
32321;SDS011;61553;48.994;8.940;2024-03-08T06:53:33;37.45;;;17.45;;
32321;SDS011;61553;48.994;8.940;2024-03-08T06:56:02;39.47;;;17.88;;
32321;SDS011;61553;48.994;8.940;2024-03-08T06:58:28;37.03;;;17.42;;
32321;SDS011;61553;48.994;8.940;2024-03-08T07:00:54;30.67;;;15.90;;
32321;SDS011;61553;48.994;8.940;2024-03-08T07:03:23;39.55;;;17.25;;
32321;SDS011;61553;48.994;8.940;2024-03-08T07:05:49;38.58;;;17.63;;
32321;SDS011;61553;48.994;8.940;2024-03-08T07:08:15;31.00;;;16.52;;
32321;SDS011;61553;48.994;8.940;2024-03-08T07:10:41;38.78;;;17.85;;
32321;SDS011;61553;48.994;8.940;2024-03-08T07:13:07;34.58;;;15.05;;
32321;SDS011;61553;48.994;8.940;2024-03-08T07:15:33;34.40;;;15.55;;
32321;SDS011;61553;48.994;8.940;2024-03-08T07:18:00;37.45;;;16.65;;
32321;SDS011;61553;48.994;8.940;2024-03-08T07:20:26;29.30;;;14.70;;
32321;SDS011;61553;48.994;8.940;2024-03-08T07:22:51;28.15;;;14.48;;
32321;SDS011;61553;48.994;8.940;2024-03-08T07:25:17;30.85;;;15.27;;
32321;SDS011;61553;48.994;8.940;2024-03-08T07:27:50;29.88;;;13.98;;
32321;SDS011;61553;48.994;8.940;2024-03-08T07:30:16;25.27;;;13.00;;
32321;SDS011;61553;48.994;8.940;2024-03-08T07:33:02;25.55;;;13.40;;
32321;SDS011;61553;48.994;8.940;2024-03-08T07:35:28;30.63;;;15.32;;
32321;SDS011;61553;48.994;8.940;2024-03-08T07:37:54;24.67;;;13.88;;
32321;SDS011;61553;48.994;8.940;2024-03-08T07:40:21;25.58;;;13.43;;
32321;SDS011;61553;48.994;8.940;2024-03-08T07:42:48;22.67;;;12.68;;
32321;SDS011;61553;48.994;8.940;2024-03-08T07:45:14;25.70;;;12.95;;
32321;SDS011;61553;48.994;8.940;2024-03-08T07:47:41;25.33;;;13.48;;
32321;SDS011;61553;48.994;8.940;2024-03-08T07:50:07;23.48;;;12.52;;
32321;SDS011;61553;48.994;8.940;2024-03-08T07:52:44;29.10;;;14.13;;
32321;SDS011;61553;48.994;8.940;2024-03-08T07:55:11;30.48;;;13.27;;
32321;SDS011;61553;48.994;8.940;2024-03-08T07:57:36;28.10;;;13.75;;
32321;SDS011;61553;48.994;8.940;2024-03-08T08:00:05;29.48;;;14.27;;
32321;SDS011;61553;48.994;8.940;2024-03-08T08:02:33;29.45;;;13.30;;
32321;SDS011;61553;48.994;8.940;2024-03-08T08:05:00;27.23;;;13.68;;
32321;SDS011;61553;48.994;8.940;2024-03-08T08:07:26;27.23;;;13.80;;
32321;SDS011;61553;48.994;8.940;2024-03-08T08:09:52;24.88;;;13.23;;
32321;SDS011;61553;48.994;8.940;2024-03-08T08:12:18;29.13;;;14.68;;
32321;SDS011;61553;48.994;8.940;2024-03-08T08:14:44;28.77;;;13.52;;
32321;SDS011;61553;48.994;8.940;2024-03-08T08:17:09;25.27;;;13.75;;
32321;SDS011;61553;48.994;8.940;2024-03-08T08:19:36;29.73;;;13.32;;
32321;SDS011;61553;48.994;8.940;2024-03-08T08:22:01;27.27;;;14.02;;
32321;SDS011;61553;48.994;8.940;2024-03-08T08:24:27;30.30;;;15.15;;
32321;SDS011;61553;48.994;8.940;2024-03-08T08:26:53;30.25;;;15.15;;
32321;SDS011;61553;48.994;8.940;2024-03-08T08:29:19;43.97;;;20.63;;
32321;SDS011;61553;48.994;8.940;2024-03-08T08:31:45;29.77;;;14.35;;
32321;SDS011;61553;48.994;8.940;2024-03-08T08:34:12;30.10;;;14.68;;
32321;SDS011;61553;48.994;8.940;2024-03-08T08:36:38;29.90;;;16.38;;
32321;SDS011;61553;48.994;8.940;2024-03-08T08:39:04;28.38;;;14.07;;
32321;SDS011;61553;48.994;8.940;2024-03-08T08:41:37;29.02;;;13.85;;
32321;SDS011;61553;48.994;8.940;2024-03-08T08:44:03;30.95;;;13.90;;
32321;SDS011;61553;48.994;8.940;2024-03-08T08:46:28;28.65;;;15.05;;
32321;SDS011;61553;48.994;8.940;2024-03-08T08:48:54;26.95;;;13.52;;
32321;SDS011;61553;48.994;8.940;2024-03-08T08:51:20;28.58;;;13.75;;
32321;SDS011;61553;48.994;8.940;2024-03-08T08:53:48;28.90;;;14.70;;
32321;SDS011;61553;48.994;8.940;2024-03-08T08:56:13;34.63;;;16.13;;
32321;SDS011;61553;48.994;8.940;2024-03-08T08:58:41;31.05;;;13.65;;
32321;SDS011;61553;48.994;8.940;2024-03-08T09:01:07;27.42;;;13.68;;
32321;SDS011;61553;48.994;8.940;2024-03-08T09:03:35;27.48;;;13.43;;
32321;SDS011;61553;48.994;8.940;2024-03-08T09:06:02;24.40;;;14.23;;
32321;SDS011;61553;48.994;8.940;2024-03-08T09:08:38;25.67;;;13.45;;
32321;SDS011;61553;48.994;8.940;2024-03-08T09:11:04;28.83;;;14.98;;
32321;SDS011;61553;48.994;8.940;2024-03-08T09:13:30;26.48;;;13.75;;
32321;SDS011;61553;48.994;8.940;2024-03-08T09:15:56;28.90;;;14.00;;
32321;SDS011;61553;48.994;8.940;2024-03-08T09:18:22;29.88;;;14.85;;
32321;SDS011;61553;48.994;8.940;2024-03-08T09:20:49;27.70;;;14.18;;
32321;SDS011;61553;48.994;8.940;2024-03-08T09:23:14;32.85;;;15.13;;
32321;SDS011;61553;48.994;8.940;2024-03-08T09:25:41;28.98;;;13.43;;
32321;SDS011;61553;48.994;8.940;2024-03-08T09:28:08;27.08;;;13.63;;
32321;SDS011;61553;48.994;8.940;2024-03-08T09:30:36;29.38;;;15.13;;
32321;SDS011;61553;48.994;8.940;2024-03-08T09:33:03;25.60;;;13.93;;
32321;SDS011;61553;48.994;8.940;2024-03-08T09:35:29;28.52;;;14.05;;
32321;SDS011;61553;48.994;8.940;2024-03-08T09:37:55;28.30;;;14.15;;
32321;SDS011;61553;48.994;8.940;2024-03-08T09:40:21;28.48;;;14.30;;
32321;SDS011;61553;48.994;8.940;2024-03-08T09:42:49;28.15;;;14.10;;
32321;SDS011;61553;48.994;8.940;2024-03-08T09:45:15;31.33;;;15.00;;
32321;SDS011;61553;48.994;8.940;2024-03-08T09:47:42;29.83;;;14.95;;
32321;SDS011;61553;48.994;8.940;2024-03-08T09:50:09;33.45;;;16.10;;
32321;SDS011;61553;48.994;8.940;2024-03-08T09:52:40;28.15;;;13.32;;
32321;SDS011;61553;48.994;8.940;2024-03-08T09:55:08;25.60;;;12.02;;
32321;SDS011;61553;48.994;8.940;2024-03-08T09:57:36;27.80;;;13.75;;
32321;SDS011;61553;48.994;8.940;2024-03-08T10:00:03;32.22;;;14.88;;
32321;SDS011;61553;48.994;8.940;2024-03-08T10:02:49;28.77;;;14.43;;
32321;SDS011;61553;48.994;8.940;2024-03-08T10:05:17;26.83;;;12.60;;
32321;SDS011;61553;48.994;8.940;2024-03-08T10:07:43;26.73;;;14.25;;
32321;SDS011;61553;48.994;8.940;2024-03-08T10:10:09;25.98;;;13.07;;
32321;SDS011;61553;48.994;8.940;2024-03-08T10:12:37;31.30;;;12.82;;
32321;SDS011;61553;48.994;8.940;2024-03-08T10:15:05;25.20;;;13.10;;
32321;SDS011;61553;48.994;8.940;2024-03-08T10:17:33;26.02;;;13.18;;
32321;SDS011;61553;48.994;8.940;2024-03-08T10:19:59;24.77;;;12.35;;
32321;SDS011;61553;48.994;8.940;2024-03-08T10:22:26;25.70;;;12.15;;
32321;SDS011;61553;48.994;8.940;2024-03-08T10:24:52;26.15;;;13.10;;
32321;SDS011;61553;48.994;8.940;2024-03-08T10:27:18;26.35;;;12.55;;
32321;SDS011;61553;48.994;8.940;2024-03-08T10:29:52;26.83;;;13.07;;
32321;SDS011;61553;48.994;8.940;2024-03-08T10:32:18;27.05;;;12.57;;
32321;SDS011;61553;48.994;8.940;2024-03-08T10:34:43;25.23;;;13.18;;
32321;SDS011;61553;48.994;8.940;2024-03-08T10:37:12;27.20;;;13.52;;
32321;SDS011;61553;48.994;8.940;2024-03-08T10:39:43;27.58;;;12.52;;
32321;SDS011;61553;48.994;8.940;2024-03-08T10:42:14;27.55;;;12.52;;
32321;SDS011;61553;48.994;8.940;2024-03-08T10:44:46;28.88;;;12.98;;
32321;SDS011;61553;48.994;8.940;2024-03-08T10:47:24;23.35;;;12.55;;
32321;SDS011;61553;48.994;8.940;2024-03-08T10:49:55;24.83;;;12.15;;
32321;SDS011;61553;48.994;8.940;2024-03-08T10:52:45;24.50;;;12.63;;
32321;SDS011;61553;48.994;8.940;2024-03-08T10:55:14;24.17;;;11.70;;
32321;SDS011;61553;48.994;8.940;2024-03-08T10:57:42;27.88;;;13.10;;
32321;SDS011;61553;48.994;8.940;2024-03-08T11:00:08;25.92;;;12.25;;
32321;SDS011;61553;48.994;8.940;2024-03-08T11:02:36;25.92;;;13.13;;
32321;SDS011;61553;48.994;8.940;2024-03-08T11:05:05;24.67;;;12.18;;
32321;SDS011;61553;48.994;8.940;2024-03-08T11:07:40;22.27;;;11.73;;
32321;SDS011;61553;48.994;8.940;2024-03-08T11:10:18;24.52;;;11.95;;
32321;SDS011;61553;48.994;8.940;2024-03-08T11:12:44;28.00;;;13.43;;
32321;SDS011;61553;48.994;8.940;2024-03-08T11:15:13;27.95;;;12.55;;
32321;SDS011;61553;48.994;8.940;2024-03-08T11:20:23;22.55;;;12.13;;
32321;SDS011;61553;48.994;8.940;2024-03-08T11:25:34;24.38;;;12.13;;
32321;SDS011;61553;48.994;8.940;2024-03-08T11:28:17;26.20;;;12.65;;
32321;SDS011;61553;48.994;8.940;2024-03-08T11:30:45;23.08;;;12.65;;
32321;SDS011;61553;48.994;8.940;2024-03-08T11:33:34;25.90;;;12.95;;
32321;SDS011;61553;48.994;8.940;2024-03-08T11:38:39;22.52;;;12.00;;
32321;SDS011;61553;48.994;8.940;2024-03-08T11:41:06;25.17;;;12.50;;
32321;SDS011;61553;48.994;8.940;2024-03-08T11:43:31;23.55;;;12.23;;
32321;SDS011;61553;48.994;8.940;2024-03-08T11:46:13;23.02;;;12.27;;
32321;SDS011;61553;48.994;8.940;2024-03-08T11:48:40;29.52;;;13.70;;
32321;SDS011;61553;48.994;8.940;2024-03-08T11:51:07;28.30;;;12.95;;
32321;SDS011;61553;48.994;8.940;2024-03-08T11:53:33;23.23;;;13.02;;
32321;SDS011;61553;48.994;8.940;2024-03-08T11:58:34;24.30;;;12.38;;
32321;SDS011;61553;48.994;8.940;2024-03-08T12:01:10;29.38;;;13.88;;
32321;SDS011;61553;48.994;8.940;2024-03-08T12:03:39;28.58;;;13.93;;
32321;SDS011;61553;48.994;8.940;2024-03-08T12:06:07;26.95;;;14.82;;
32321;SDS011;61553;48.994;8.940;2024-03-08T12:08:38;25.02;;;13.00;;
32321;SDS011;61553;48.994;8.940;2024-03-08T12:11:04;36.38;;;16.83;;
32321;SDS011;61553;48.994;8.940;2024-03-08T12:13:30;33.70;;;15.27;;
32321;SDS011;61553;48.994;8.940;2024-03-08T12:15:58;32.65;;;15.45;;
32321;SDS011;61553;48.994;8.940;2024-03-08T12:18:25;32.10;;;15.45;;
32321;SDS011;61553;48.994;8.940;2024-03-08T12:21:03;30.92;;;14.80;;
32321;SDS011;61553;48.994;8.940;2024-03-08T12:24:02;30.90;;;15.43;;
32321;SDS011;61553;48.994;8.940;2024-03-08T12:26:36;30.35;;;14.80;;
32321;SDS011;61553;48.994;8.940;2024-03-08T12:31:43;27.73;;;14.85;;
32321;SDS011;61553;48.994;8.940;2024-03-08T12:34:09;26.60;;;13.48;;
32321;SDS011;61553;48.994;8.940;2024-03-08T12:36:35;32.35;;;15.65;;
32321;SDS011;61553;48.994;8.940;2024-03-08T12:39:01;28.63;;;14.48;;
32321;SDS011;61553;48.994;8.940;2024-03-08T12:41:28;27.00;;;13.55;;
32321;SDS011;61553;48.994;8.940;2024-03-08T12:43:54;30.45;;;13.77;;
32321;SDS011;61553;48.994;8.940;2024-03-08T12:46:21;27.52;;;13.35;;
32321;SDS011;61553;48.994;8.940;2024-03-08T12:48:47;26.58;;;13.45;;
32321;SDS011;61553;48.994;8.940;2024-03-08T12:51:13;26.80;;;13.30;;
32321;SDS011;61553;48.994;8.940;2024-03-08T12:53:41;29.15;;;14.50;;
32321;SDS011;61553;48.994;8.940;2024-03-08T12:56:09;26.42;;;14.00;;
32321;SDS011;61553;48.994;8.940;2024-03-08T12:58:36;32.85;;;14.80;;
32321;SDS011;61553;48.994;8.940;2024-03-08T13:01:02;28.92;;;13.80;;
32321;SDS011;61553;48.994;8.940;2024-03-08T13:06:03;25.13;;;13.05;;
32321;SDS011;61553;48.994;8.940;2024-03-08T13:08:33;28.27;;;13.45;;
32321;SDS011;61553;48.994;8.940;2024-03-08T13:11:05;31.52;;;13.32;;
32321;SDS011;61553;48.994;8.940;2024-03-08T13:13:36;29.80;;;13.68;;
32321;SDS011;61553;48.994;8.940;2024-03-08T13:16:05;27.02;;;13.63;;
32321;SDS011;61553;48.994;8.940;2024-03-08T13:18:35;27.58;;;13.95;;
32321;SDS011;61553;48.994;8.940;2024-03-08T13:21:01;30.27;;;13.40;;
32321;SDS011;61553;48.994;8.940;2024-03-08T13:23:33;32.17;;;14.80;;
32321;SDS011;61553;48.994;8.940;2024-03-08T13:26:08;27.65;;;13.98;;
32321;SDS011;61553;48.994;8.940;2024-03-08T13:28:37;28.95;;;14.82;;
32321;SDS011;61553;48.994;8.940;2024-03-08T13:31:06;29.42;;;15.20;;
32321;SDS011;61553;48.994;8.940;2024-03-08T13:33:35;27.23;;;14.50;;
32321;SDS011;61553;48.994;8.940;2024-03-08T13:36:07;28.65;;;14.23;;
32321;SDS011;61553;48.994;8.940;2024-03-08T13:38:45;27.70;;;14.27;;
32321;SDS011;61553;48.994;8.940;2024-03-08T13:41:14;27.25;;;14.30;;
32321;SDS011;61553;48.994;8.940;2024-03-08T13:43:42;27.55;;;14.07;;
32321;SDS011;61553;48.994;8.940;2024-03-08T13:46:08;24.77;;;13.40;;
32321;SDS011;61553;48.994;8.940;2024-03-08T13:48:35;30.58;;;14.52;;
32321;SDS011;61553;48.994;8.940;2024-03-08T13:51:02;28.85;;;15.10;;
32321;SDS011;61553;48.994;8.940;2024-03-08T13:53:32;31.63;;;14.30;;
32321;SDS011;61553;48.994;8.940;2024-03-08T13:56:00;26.95;;;13.35;;
32321;SDS011;61553;48.994;8.940;2024-03-08T13:58:28;28.08;;;13.55;;
32321;SDS011;61553;48.994;8.940;2024-03-08T14:00:54;24.73;;;12.57;;
32321;SDS011;61553;48.994;8.940;2024-03-08T14:03:20;26.38;;;13.27;;
32321;SDS011;61553;48.994;8.940;2024-03-08T14:05:46;26.00;;;13.63;;
32321;SDS011;61553;48.994;8.940;2024-03-08T14:08:12;26.30;;;13.55;;
32321;SDS011;61553;48.994;8.940;2024-03-08T14:10:38;26.90;;;14.15;;
32321;SDS011;61553;48.994;8.940;2024-03-08T14:13:04;27.17;;;13.07;;
32321;SDS011;61553;48.994;8.940;2024-03-08T14:15:31;27.77;;;13.77;;
32321;SDS011;61553;48.994;8.940;2024-03-08T14:17:58;27.83;;;13.63;;
32321;SDS011;61553;48.994;8.940;2024-03-08T14:20:24;26.35;;;13.48;;
32321;SDS011;61553;48.994;8.940;2024-03-08T14:22:56;26.10;;;13.07;;
32321;SDS011;61553;48.994;8.940;2024-03-08T14:25:22;31.17;;;13.77;;
32321;SDS011;61553;48.994;8.940;2024-03-08T14:27:51;29.85;;;13.02;;
32321;SDS011;61553;48.994;8.940;2024-03-08T14:30:19;26.83;;;12.43;;
32321;SDS011;61553;48.994;8.940;2024-03-08T14:33:04;27.48;;;13.07;;
32321;SDS011;61553;48.994;8.940;2024-03-08T14:35:37;26.60;;;12.85;;
32321;SDS011;61553;48.994;8.940;2024-03-08T14:38:03;27.35;;;13.07;;
32321;SDS011;61553;48.994;8.940;2024-03-08T14:40:29;27.48;;;13.38;;
32321;SDS011;61553;48.994;8.940;2024-03-08T14:42:56;22.88;;;12.60;;
32321;SDS011;61553;48.994;8.940;2024-03-08T14:45:22;24.58;;;12.27;;
32321;SDS011;61553;48.994;8.940;2024-03-08T14:47:49;28.00;;;13.20;;